sensor_id;sensor_type;location;lat;lon;timestamp;temperature;humidity
67163;DHT22;54092;53.088;8.850;2023-04-24T00:02:02;11.60;99.90
67163;DHT22;54092;53.088;8.850;2023-04-24T00:04:29;11.60;99.90
67163;DHT22;54092;53.088;8.850;2023-04-24T00:06:55;11.60;99.90
67163;DHT22;54092;53.088;8.850;2023-04-24T00:09:22;11.60;99.90
67163;DHT22;54092;53.088;8.850;2023-04-24T00:11:48;11.60;99.90
67163;DHT22;54092;53.088;8.850;2023-04-24T00:14:13;11.60;99.90
67163;DHT22;54092;53.088;8.850;2023-04-24T00:16:39;11.60;99.90
67163;DHT22;54092;53.088;8.850;2023-04-24T00:19:05;11.60;99.90
67163;DHT22;54092;53.088;8.850;2023-04-24T00:21:31;11.60;99.90
67163;DHT22;54092;53.088;8.850;2023-04-24T00:23:58;11.60;99.90
67163;DHT22;54092;53.088;8.850;2023-04-24T00:26:23;11.60;99.90
67163;DHT22;54092;53.088;8.850;2023-04-24T00:28:49;11.50;99.90
67163;DHT22;54092;53.088;8.850;2023-04-24T00:31:14;11.50;99.90
67163;DHT22;54092;53.088;8.850;2023-04-24T00:33:40;11.60;99.90
67163;DHT22;54092;53.088;8.850;2023-04-24T00:36:06;11.60;99.90
67163;DHT22;54092;53.088;8.850;2023-04-24T00:38:32;11.60;99.90
67163;DHT22;54092;53.088;8.850;2023-04-24T00:40:58;11.60;99.90
67163;DHT22;54092;53.088;8.850;2023-04-24T00:43:23;11.60;99.90
67163;DHT22;54092;53.088;8.850;2023-04-24T00:45:49;11.70;99.90
67163;DHT22;54092;53.088;8.850;2023-04-24T00:48:16;11.70;99.90
67163;DHT22;54092;53.088;8.850;2023-04-24T00:50:42;11.80;99.90
67163;DHT22;54092;53.088;8.850;2023-04-24T00:53:07;11.80;99.90
67163;DHT22;54092;53.088;8.850;2023-04-24T00:55:33;11.90;99.90
67163;DHT22;54092;53.088;8.850;2023-04-24T00:57:58;11.90;99.90
67163;DHT22;54092;53.088;8.850;2023-04-24T01:00:25;11.80;99.90
67163;DHT22;54092;53.088;8.850;2023-04-24T01:02:51;11.80;99.90
67163;DHT22;54092;53.088;8.850;2023-04-24T01:05:17;11.80;99.90
67163;DHT22;54092;53.088;8.850;2023-04-24T01:07:45;11.70;99.90
67163;DHT22;54092;53.088;8.850;2023-04-24T01:10:14;11.60;99.90
67163;DHT22;54092;53.088;8.850;2023-04-24T01:12:40;11.60;99.90
67163;DHT22;54092;53.088;8.850;2023-04-24T01:15:06;11.50;99.90
67163;DHT22;54092;53.088;8.850;2023-04-24T01:17:33;11.40;99.90
67163;DHT22;54092;53.088;8.850;2023-04-24T01:19:59;11.40;99.90
67163;DHT22;54092;53.088;8.850;2023-04-24T01:22:25;11.40;99.90
67163;DHT22;54092;53.088;8.850;2023-04-24T01:24:51;11.40;99.90
67163;DHT22;54092;53.088;8.850;2023-04-24T01:27:17;11.40;99.90
67163;DHT22;54092;53.088;8.850;2023-04-24T01:29:43;11.50;99.90
67163;DHT22;54092;53.088;8.850;2023-04-24T01:32:08;11.50;99.90
67163;DHT22;54092;53.088;8.850;2023-04-24T01:34:34;11.50;99.90
67163;DHT22;54092;53.088;8.850;2023-04-24T01:37:00;11.50;99.90
67163;DHT22;54092;53.088;8.850;2023-04-24T01:39:26;11.50;99.90
67163;DHT22;54092;53.088;8.850;2023-04-24T01:41:54;11.60;99.90
67163;DHT22;54092;53.088;8.850;2023-04-24T01:44:20;11.50;99.90
67163;DHT22;54092;53.088;8.850;2023-04-24T01:46:46;11.50;99.90
67163;DHT22;54092;53.088;8.850;2023-04-24T01:49:11;11.50;99.90
67163;DHT22;54092;53.088;8.850;2023-04-24T01:51:37;11.60;99.90
67163;DHT22;54092;53.088;8.850;2023-04-24T01:54:02;11.60;99.90
67163;DHT22;54092;53.088;8.850;2023-04-24T01:56:33;11.70;99.90
67163;DHT22;54092;53.088;8.850;2023-04-24T01:58:59;11.60;99.90
67163;DHT22;54092;53.088;8.850;2023-04-24T02:01:26;11.60;99.90
67163;DHT22;54092;53.088;8.850;2023-04-24T02:03:52;11.50;99.90
67163;DHT22;54092;53.088;8.850;2023-04-24T02:06:17;11.50;99.90
67163;DHT22;54092;53.088;8.850;2023-04-24T02:08:43;11.40;99.90
67163;DHT22;54092;53.088;8.850;2023-04-24T02:11:09;11.50;99.90
67163;DHT22;54092;53.088;8.850;2023-04-24T02:13:35;11.40;99.90
67163;DHT22;54092;53.088;8.850;2023-04-24T02:16:01;11.50;99.90
67163;DHT22;54092;53.088;8.850;2023-04-24T02:18:26;11.50;99.90
67163;DHT22;54092;53.088;8.850;2023-04-24T02:20:52;11.60;99.90
67163;DHT22;54092;53.088;8.850;2023-04-24T02:23:18;11.60;99.90
67163;DHT22;54092;53.088;8.850;2023-04-24T02:25:43;11.60;99.90
67163;DHT22;54092;53.088;8.850;2023-04-24T02:28:09;11.70;99.90
67163;DHT22;54092;53.088;8.850;2023-04-24T02:30:34;11.70;99.90
67163;DHT22;54092;53.088;8.850;2023-04-24T02:33:00;11.60;99.90
67163;DHT22;54092;53.088;8.850;2023-04-24T02:35:25;11.50;99.90
67163;DHT22;54092;53.088;8.850;2023-04-24T02:37:51;11.40;99.90
67163;DHT22;54092;53.088;8.850;2023-04-24T02:40:16;11.40;99.90
67163;DHT22;54092;53.088;8.850;2023-04-24T02:42:42;11.40;99.90
67163;DHT22;54092;53.088;8.850;2023-04-24T02:45:07;11.40;99.90
67163;DHT22;54092;53.088;8.850;2023-04-24T02:47:33;11.30;99.90
67163;DHT22;54092;53.088;8.850;2023-04-24T02:49:58;11.30;99.90
67163;DHT22;54092;53.088;8.850;2023-04-24T02:52:24;11.20;99.90
67163;DHT22;54092;53.088;8.850;2023-04-24T02:54:49;11.30;99.90
67163;DHT22;54092;53.088;8.850;2023-04-24T02:57:15;11.30;99.90
67163;DHT22;54092;53.088;8.850;2023-04-24T02:59:41;11.30;99.90
67163;DHT22;54092;53.088;8.850;2023-04-24T03:02:06;11.30;99.90
67163;DHT22;54092;53.088;8.850;2023-04-24T03:04:32;11.30;99.90
67163;DHT22;54092;53.088;8.850;2023-04-24T03:06:57;11.30;99.90
67163;DHT22;54092;53.088;8.850;2023-04-24T03:09:24;11.30;99.90
67163;DHT22;54092;53.088;8.850;2023-04-24T03:11:49;11.40;99.90
67163;DHT22;54092;53.088;8.850;2023-04-24T03:14:16;11.40;99.90
67163;DHT22;54092;53.088;8.850;2023-04-24T03:16:42;11.40;99.90
67163;DHT22;54092;53.088;8.850;2023-04-24T03:19:07;11.40;99.90
67163;DHT22;54092;53.088;8.850;2023-04-24T03:21:33;11.50;99.90
67163;DHT22;54092;53.088;8.850;2023-04-24T03:23:58;11.40;99.90
67163;DHT22;54092;53.088;8.850;2023-04-24T03:26:24;11.50;99.90
67163;DHT22;54092;53.088;8.850;2023-04-24T03:28:50;11.50;99.90
67163;DHT22;54092;53.088;8.850;2023-04-24T03:31:15;11.50;99.90
67163;DHT22;54092;53.088;8.850;2023-04-24T03:33:41;11.50;99.90
67163;DHT22;54092;53.088;8.850;2023-04-24T03:36:07;11.50;99.90
67163;DHT22;54092;53.088;8.850;2023-04-24T03:38:32;11.50;99.90
67163;DHT22;54092;53.088;8.850;2023-04-24T03:40:58;11.50;99.90
67163;DHT22;54092;53.088;8.850;2023-04-24T03:43:23;11.50;99.90
67163;DHT22;54092;53.088;8.850;2023-04-24T03:45:49;11.40;99.90
67163;DHT22;54092;53.088;8.850;2023-04-24T03:48:14;11.50;99.90
67163;DHT22;54092;53.088;8.850;2023-04-24T03:50:40;11.50;99.90
67163;DHT22;54092;53.088;8.850;2023-04-24T03:53:05;11.50;99.90
67163;DHT22;54092;53.088;8.850;2023-04-24T03:55:31;11.50;99.90
67163;DHT22;54092;53.088;8.850;2023-04-24T03:57:57;11.50;99.90
67163;DHT22;54092;53.088;8.850;2023-04-24T04:00:23;11.50;99.90
67163;DHT22;54092;53.088;8.850;2023-04-24T04:02:48;11.50;99.90
67163;DHT22;54092;53.088;8.850;2023-04-24T04:05:14;11.40;99.90
67163;DHT22;54092;53.088;8.850;2023-04-24T04:07:39;11.40;99.90
67163;DHT22;54092;53.088;8.850;2023-04-24T04:10:05;11.50;99.90
67163;DHT22;54092;53.088;8.850;2023-04-24T04:12:32;11.50;99.90
67163;DHT22;54092;53.088;8.850;2023-04-24T04:14:57;11.40;99.90
67163;DHT22;54092;53.088;8.850;2023-04-24T04:17:23;11.50;99.90
67163;DHT22;54092;53.088;8.850;2023-04-24T04:19:49;11.50;99.90
67163;DHT22;54092;53.088;8.850;2023-04-24T04:22:14;11.50;99.90
67163;DHT22;54092;53.088;8.850;2023-04-24T04:24:40;11.50;99.90
67163;DHT22;54092;53.088;8.850;2023-04-24T04:27:06;11.50;99.90
67163;DHT22;54092;53.088;8.850;2023-04-24T04:29:32;11.50;99.90
67163;DHT22;54092;53.088;8.850;2023-04-24T04:31:58;11.50;99.90
67163;DHT22;54092;53.088;8.850;2023-04-24T04:34:23;11.50;99.90
67163;DHT22;54092;53.088;8.850;2023-04-24T04:36:49;11.50;99.90
67163;DHT22;54092;53.088;8.850;2023-04-24T04:39:15;11.50;99.90
67163;DHT22;54092;53.088;8.850;2023-04-24T04:41:41;11.40;99.90
67163;DHT22;54092;53.088;8.850;2023-04-24T04:44:07;11.40;99.90
67163;DHT22;54092;53.088;8.850;2023-04-24T04:46:34;11.50;99.90
67163;DHT22;54092;53.088;8.850;2023-04-24T04:49:00;11.50;99.90
67163;DHT22;54092;53.088;8.850;2023-04-24T04:51:26;11.50;99.90
67163;DHT22;54092;53.088;8.850;2023-04-24T04:53:52;11.50;99.90
67163;DHT22;54092;53.088;8.850;2023-04-24T04:56:18;11.50;99.90
67163;DHT22;54092;53.088;8.850;2023-04-24T04:58:43;11.40;99.90
67163;DHT22;54092;53.088;8.850;2023-04-24T05:01:09;11.50;99.90
67163;DHT22;54092;53.088;8.850;2023-04-24T05:03:34;11.50;99.90
67163;DHT22;54092;53.088;8.850;2023-04-24T05:06:01;11.50;99.90
67163;DHT22;54092;53.088;8.850;2023-04-24T05:08:27;11.50;99.90
67163;DHT22;54092;53.088;8.850;2023-04-24T05:10:53;11.50;99.90
67163;DHT22;54092;53.088;8.850;2023-04-24T05:13:18;11.50;99.90
67163;DHT22;54092;53.088;8.850;2023-04-24T05:15:44;11.50;99.90
67163;DHT22;54092;53.088;8.850;2023-04-24T05:18:10;11.60;99.90
67163;DHT22;54092;53.088;8.850;2023-04-24T05:20:35;11.60;99.90
67163;DHT22;54092;53.088;8.850;2023-04-24T05:23:01;11.50;99.90
67163;DHT22;54092;53.088;8.850;2023-04-24T05:25:26;11.60;99.90
67163;DHT22;54092;53.088;8.850;2023-04-24T05:27:52;11.60;99.90
67163;DHT22;54092;53.088;8.850;2023-04-24T05:30:18;11.60;99.90
67163;DHT22;54092;53.088;8.850;2023-04-24T05:32:45;11.60;99.90
67163;DHT22;54092;53.088;8.850;2023-04-24T05:35:10;11.60;99.90
67163;DHT22;54092;53.088;8.850;2023-04-24T05:37:36;11.60;99.90
67163;DHT22;54092;53.088;8.850;2023-04-24T05:40:01;11.60;99.90
67163;DHT22;54092;53.088;8.850;2023-04-24T05:42:27;11.60;99.90
67163;DHT22;54092;53.088;8.850;2023-04-24T05:44:52;11.70;99.90
67163;DHT22;54092;53.088;8.850;2023-04-24T05:47:19;11.60;99.90
67163;DHT22;54092;53.088;8.850;2023-04-24T05:49:47;11.60;99.90
67163;DHT22;54092;53.088;8.850;2023-04-24T05:52:12;11.60;99.90
67163;DHT22;54092;53.088;8.850;2023-04-24T05:54:38;11.60;99.90
67163;DHT22;54092;53.088;8.850;2023-04-24T05:57:03;11.60;99.90
67163;DHT22;54092;53.088;8.850;2023-04-24T05:59:33;11.70;99.90
67163;DHT22;54092;53.088;8.850;2023-04-24T06:01:59;11.70;99.90
67163;DHT22;54092;53.088;8.850;2023-04-24T06:04:24;11.90;99.90
67163;DHT22;54092;53.088;8.850;2023-04-24T06:06:50;12.00;99.90
67163;DHT22;54092;53.088;8.850;2023-04-24T06:09:21;12.10;99.90
67163;DHT22;54092;53.088;8.850;2023-04-24T06:11:47;12.20;99.90
67163;DHT22;54092;53.088;8.850;2023-04-24T06:14:12;12.20;99.90
67163;DHT22;54092;53.088;8.850;2023-04-24T06:16:38;12.20;99.90
67163;DHT22;54092;53.088;8.850;2023-04-24T06:19:04;12.20;99.90
67163;DHT22;54092;53.088;8.850;2023-04-24T06:21:29;12.10;99.90
67163;DHT22;54092;53.088;8.850;2023-04-24T06:23:55;12.00;99.90
67163;DHT22;54092;53.088;8.850;2023-04-24T06:26:21;12.00;99.90
67163;DHT22;54092;53.088;8.850;2023-04-24T06:28:47;11.90;99.90
67163;DHT22;54092;53.088;8.850;2023-04-24T06:31:13;11.90;99.90
67163;DHT22;54092;53.088;8.850;2023-04-24T06:33:39;11.90;99.90
67163;DHT22;54092;53.088;8.850;2023-04-24T06:36:04;11.90;99.90
67163;DHT22;54092;53.088;8.850;2023-04-24T06:38:30;12.10;99.90
67163;DHT22;54092;53.088;8.850;2023-04-24T06:40:55;12.10;99.90
67163;DHT22;54092;53.088;8.850;2023-04-24T06:43:21;12.10;99.90
67163;DHT22;54092;53.088;8.850;2023-04-24T06:45:46;12.00;99.90
67163;DHT22;54092;53.088;8.850;2023-04-24T06:48:12;12.00;99.90
67163;DHT22;54092;53.088;8.850;2023-04-24T06:50:38;12.00;99.90
67163;DHT22;54092;53.088;8.850;2023-04-24T06:53:03;12.00;99.90
67163;DHT22;54092;53.088;8.850;2023-04-24T06:55:28;12.00;99.90
67163;DHT22;54092;53.088;8.850;2023-04-24T06:57:54;11.90;99.90
67163;DHT22;54092;53.088;8.850;2023-04-24T07:00:20;11.80;99.90
67163;DHT22;54092;53.088;8.850;2023-04-24T07:02:46;11.70;99.90
67163;DHT22;54092;53.088;8.850;2023-04-24T07:05:11;11.70;99.90
67163;DHT22;54092;53.088;8.850;2023-04-24T07:07:38;11.70;99.90
67163;DHT22;54092;53.088;8.850;2023-04-24T07:10:05;11.70;99.90
67163;DHT22;54092;53.088;8.850;2023-04-24T07:12:31;11.60;99.90
67163;DHT22;54092;53.088;8.850;2023-04-24T07:14:57;11.60;99.90
67163;DHT22;54092;53.088;8.850;2023-04-24T07:17:23;11.60;99.90
67163;DHT22;54092;53.088;8.850;2023-04-24T07:19:48;11.60;99.90
67163;DHT22;54092;53.088;8.850;2023-04-24T07:22:14;11.70;99.90
67163;DHT22;54092;53.088;8.850;2023-04-24T07:24:43;11.80;99.90
67163;DHT22;54092;53.088;8.850;2023-04-24T07:27:08;11.80;99.90
67163;DHT22;54092;53.088;8.850;2023-04-24T07:29:34;11.90;99.90
67163;DHT22;54092;53.088;8.850;2023-04-24T07:32:00;12.00;99.90
67163;DHT22;54092;53.088;8.850;2023-04-24T07:34:26;12.00;99.90
67163;DHT22;54092;53.088;8.850;2023-04-24T07:36:51;12.10;99.90
67163;DHT22;54092;53.088;8.850;2023-04-24T07:39:18;12.20;99.90
67163;DHT22;54092;53.088;8.850;2023-04-24T07:41:43;12.30;99.90
67163;DHT22;54092;53.088;8.850;2023-04-24T07:44:09;12.30;99.90
67163;DHT22;54092;53.088;8.850;2023-04-24T07:46:34;12.30;99.90
67163;DHT22;54092;53.088;8.850;2023-04-24T07:49:00;12.10;99.90
67163;DHT22;54092;53.088;8.850;2023-04-24T07:51:26;12.10;99.90
67163;DHT22;54092;53.088;8.850;2023-04-24T07:53:55;12.20;99.90
67163;DHT22;54092;53.088;8.850;2023-04-24T07:56:21;12.20;99.90
67163;DHT22;54092;53.088;8.850;2023-04-24T07:58:47;12.30;99.90
67163;DHT22;54092;53.088;8.850;2023-04-24T08:01:12;12.40;99.90
67163;DHT22;54092;53.088;8.850;2023-04-24T08:03:38;12.40;99.90
67163;DHT22;54092;53.088;8.850;2023-04-24T08:06:03;12.20;99.90
67163;DHT22;54092;53.088;8.850;2023-04-24T08:08:29;12.20;99.90
67163;DHT22;54092;53.088;8.850;2023-04-24T08:10:55;12.20;99.90
67163;DHT22;54092;53.088;8.850;2023-04-24T08:13:20;12.20;99.90
67163;DHT22;54092;53.088;8.850;2023-04-24T08:15:46;12.10;99.90
67163;DHT22;54092;53.088;8.850;2023-04-24T08:18:11;12.10;99.90
67163;DHT22;54092;53.088;8.850;2023-04-24T08:20:39;12.10;99.90
67163;DHT22;54092;53.088;8.850;2023-04-24T08:23:04;12.10;99.90
67163;DHT22;54092;53.088;8.850;2023-04-24T08:25:30;12.00;99.90
67163;DHT22;54092;53.088;8.850;2023-04-24T08:27:55;12.00;99.90
67163;DHT22;54092;53.088;8.850;2023-04-24T08:30:21;12.10;99.90
67163;DHT22;54092;53.088;8.850;2023-04-24T08:32:47;12.20;99.90
67163;DHT22;54092;53.088;8.850;2023-04-24T08:35:13;12.40;99.90
67163;DHT22;54092;53.088;8.850;2023-04-24T08:37:38;12.50;99.90
67163;DHT22;54092;53.088;8.850;2023-04-24T08:40:09;12.50;99.90
67163;DHT22;54092;53.088;8.850;2023-04-24T08:42:37;12.70;99.90
67163;DHT22;54092;53.088;8.850;2023-04-24T08:45:03;12.80;99.90
67163;DHT22;54092;53.088;8.850;2023-04-24T08:47:29;12.80;99.90
67163;DHT22;54092;53.088;8.850;2023-04-24T08:49:56;12.90;99.90
67163;DHT22;54092;53.088;8.850;2023-04-24T08:52:22;12.90;99.90
67163;DHT22;54092;53.088;8.850;2023-04-24T08:54:48;13.00;99.90
67163;DHT22;54092;53.088;8.850;2023-04-24T08:57:14;13.10;99.90
67163;DHT22;54092;53.088;8.850;2023-04-24T08:59:40;13.30;99.90
67163;DHT22;54092;53.088;8.850;2023-04-24T09:02:06;13.30;99.90
67163;DHT22;54092;53.088;8.850;2023-04-24T09:04:35;13.40;99.90
67163;DHT22;54092;53.088;8.850;2023-04-24T09:07:01;13.30;99.90
67163;DHT22;54092;53.088;8.850;2023-04-24T09:09:29;13.20;99.90
67163;DHT22;54092;53.088;8.850;2023-04-24T09:11:56;13.20;99.90
67163;DHT22;54092;53.088;8.850;2023-04-24T09:14:23;13.20;99.90
67163;DHT22;54092;53.088;8.850;2023-04-24T09:16:49;13.00;99.90
67163;DHT22;54092;53.088;8.850;2023-04-24T09:19:15;13.00;99.90
67163;DHT22;54092;53.088;8.850;2023-04-24T09:21:40;12.90;99.90
67163;DHT22;54092;53.088;8.850;2023-04-24T09:24:15;12.90;99.90
67163;DHT22;54092;53.088;8.850;2023-04-24T09:26:43;12.80;99.90
67163;DHT22;54092;53.088;8.850;2023-04-24T09:29:15;13.00;99.90
67163;DHT22;54092;53.088;8.850;2023-04-24T09:31:41;13.70;99.90
67163;DHT22;54092;53.088;8.850;2023-04-24T09:34:06;13.90;99.90
67163;DHT22;54092;53.088;8.850;2023-04-24T09:36:34;13.70;99.90
67163;DHT22;54092;53.088;8.850;2023-04-24T09:39:03;13.40;99.90
67163;DHT22;54092;53.088;8.850;2023-04-24T09:41:29;13.10;99.90
67163;DHT22;54092;53.088;8.850;2023-04-24T09:43:56;13.00;99.90
67163;DHT22;54092;53.088;8.850;2023-04-24T09:46:29;13.10;99.90
67163;DHT22;54092;53.088;8.850;2023-04-24T09:48:55;12.90;99.90
67163;DHT22;54092;53.088;8.850;2023-04-24T09:51:34;12.80;99.90
67163;DHT22;54092;53.088;8.850;2023-04-24T09:54:00;12.60;99.90
67163;DHT22;54092;53.088;8.850;2023-04-24T09:56:26;12.60;99.90
67163;DHT22;54092;53.088;8.850;2023-04-24T09:58:52;12.40;99.90
67163;DHT22;54092;53.088;8.850;2023-04-24T10:01:30;12.40;99.90
67163;DHT22;54092;53.088;8.850;2023-04-24T10:03:56;12.40;99.90
67163;DHT22;54092;53.088;8.850;2023-04-24T10:06:21;12.40;99.90
67163;DHT22;54092;53.088;8.850;2023-04-24T10:08:48;12.30;99.90
67163;DHT22;54092;53.088;8.850;2023-04-24T10:11:14;12.40;99.90
67163;DHT22;54092;53.088;8.850;2023-04-24T10:13:41;12.40;99.90
67163;DHT22;54092;53.088;8.850;2023-04-24T10:16:07;12.30;99.90
67163;DHT22;54092;53.088;8.850;2023-04-24T10:18:33;12.30;99.90
67163;DHT22;54092;53.088;8.850;2023-04-24T10:21:00;12.30;99.90
67163;DHT22;54092;53.088;8.850;2023-04-24T10:23:26;12.20;99.90
67163;DHT22;54092;53.088;8.850;2023-04-24T10:25:52;12.10;99.90
67163;DHT22;54092;53.088;8.850;2023-04-24T10:28:19;12.10;99.90
67163;DHT22;54092;53.088;8.850;2023-04-24T10:30:45;12.10;99.90
67163;DHT22;54092;53.088;8.850;2023-04-24T10:33:11;12.10;99.90
67163;DHT22;54092;53.088;8.850;2023-04-24T10:35:41;12.10;99.90
67163;DHT22;54092;53.088;8.850;2023-04-24T10:38:11;12.10;99.90
67163;DHT22;54092;53.088;8.850;2023-04-24T10:40:37;12.10;99.90
67163;DHT22;54092;53.088;8.850;2023-04-24T10:43:04;11.90;99.90
67163;DHT22;54092;53.088;8.850;2023-04-24T10:45:32;11.80;99.90
67163;DHT22;54092;53.088;8.850;2023-04-24T10:47:59;11.90;99.90
67163;DHT22;54092;53.088;8.850;2023-04-24T10:50:27;12.00;99.90
67163;DHT22;54092;53.088;8.850;2023-04-24T10:52:54;12.00;99.90
67163;DHT22;54092;53.088;8.850;2023-04-24T10:56:02;12.00;99.90
67163;DHT22;54092;53.088;8.850;2023-04-24T10:58:51;12.10;99.90
67163;DHT22;54092;53.088;8.850;2023-04-24T11:01:28;12.20;99.90
67163;DHT22;54092;53.088;8.850;2023-04-24T11:03:56;12.20;99.90
67163;DHT22;54092;53.088;8.850;2023-04-24T11:06:33;12.30;99.90
67163;DHT22;54092;53.088;8.850;2023-04-24T11:11:32;12.50;99.90
67163;DHT22;54092;53.088;8.850;2023-04-24T11:18:57;12.70;99.90
67163;DHT22;54092;53.088;8.850;2023-04-24T11:21:25;12.50;99.90
67163;DHT22;54092;53.088;8.850;2023-04-24T11:23:51;12.60;99.90
67163;DHT22;54092;53.088;8.850;2023-04-24T11:26:19;12.80;99.90
67163;DHT22;54092;53.088;8.850;2023-04-24T11:28:50;12.70;99.90
67163;DHT22;54092;53.088;8.850;2023-04-24T11:31:45;12.60;99.90
67163;DHT22;54092;53.088;8.850;2023-04-24T11:34:17;12.30;99.90
67163;DHT22;54092;53.088;8.850;2023-04-24T11:36:44;12.10;99.90
67163;DHT22;54092;53.088;8.850;2023-04-24T11:39:10;12.00;99.90
67163;DHT22;54092;53.088;8.850;2023-04-24T11:41:37;11.90;99.90
67163;DHT22;54092;53.088;8.850;2023-04-24T11:44:05;11.80;99.90
67163;DHT22;54092;53.088;8.850;2023-04-24T11:46:31;11.70;99.90
67163;DHT22;54092;53.088;8.850;2023-04-24T11:48:58;11.60;99.90
67163;DHT22;54092;53.088;8.850;2023-04-24T11:51:24;11.60;99.90
67163;DHT22;54092;53.088;8.850;2023-04-24T11:53:54;11.60;99.90
67163;DHT22;54092;53.088;8.850;2023-04-24T11:56:24;11.70;99.90
67163;DHT22;54092;53.088;8.850;2023-04-24T11:58:52;11.60;99.90
67163;DHT22;54092;53.088;8.850;2023-04-24T12:01:18;11.50;99.90
67163;DHT22;54092;53.088;8.850;2023-04-24T12:03:48;11.40;99.90
67163;DHT22;54092;53.088;8.850;2023-04-24T12:06:13;11.30;99.90
67163;DHT22;54092;53.088;8.850;2023-04-24T12:08:39;11.20;99.90
67163;DHT22;54092;53.088;8.850;2023-04-24T12:11:05;11.30;99.90
67163;DHT22;54092;53.088;8.850;2023-04-24T12:13:33;11.10;99.90
67163;DHT22;54092;53.088;8.850;2023-04-24T12:15:58;10.80;99.90
67163;DHT22;54092;53.088;8.850;2023-04-24T12:18:24;10.70;99.90
67163;DHT22;54092;53.088;8.850;2023-04-24T12:20:50;10.60;99.90
67163;DHT22;54092;53.088;8.850;2023-04-24T12:23:16;10.60;99.90
67163;DHT22;54092;53.088;8.850;2023-04-24T12:25:43;10.50;99.90
67163;DHT22;54092;53.088;8.850;2023-04-24T12:28:11;10.50;99.90
67163;DHT22;54092;53.088;8.850;2023-04-24T12:30:42;10.50;99.90
67163;DHT22;54092;53.088;8.850;2023-04-24T12:33:11;10.50;99.90
67163;DHT22;54092;53.088;8.850;2023-04-24T12:35:37;10.50;99.90
67163;DHT22;54092;53.088;8.850;2023-04-24T12:38:09;10.50;99.90
67163;DHT22;54092;53.088;8.850;2023-04-24T12:40:36;10.50;99.90
67163;DHT22;54092;53.088;8.850;2023-04-24T12:43:01;10.50;99.90
67163;DHT22;54092;53.088;8.850;2023-04-24T12:45:27;10.50;99.90
67163;DHT22;54092;53.088;8.850;2023-04-24T12:47:53;10.50;99.90
67163;DHT22;54092;53.088;8.850;2023-04-24T12:50:18;10.50;99.90
67163;DHT22;54092;53.088;8.850;2023-04-24T12:52:44;10.40;99.90
67163;DHT22;54092;53.088;8.850;2023-04-24T12:55:10;10.30;99.90
67163;DHT22;54092;53.088;8.850;2023-04-24T12:57:39;10.30;99.90
67163;DHT22;54092;53.088;8.850;2023-04-24T13:00:06;10.30;99.90
67163;DHT22;54092;53.088;8.850;2023-04-24T13:02:33;10.30;99.90
67163;DHT22;54092;53.088;8.850;2023-04-24T13:04:59;10.30;99.90
67163;DHT22;54092;53.088;8.850;2023-04-24T13:07:25;10.30;99.90
67163;DHT22;54092;53.088;8.850;2023-04-24T13:09:51;10.20;99.90
67163;DHT22;54092;53.088;8.850;2023-04-24T13:12:17;10.10;99.90
67163;DHT22;54092;53.088;8.850;2023-04-24T13:14:43;10.00;99.90
67163;DHT22;54092;53.088;8.850;2023-04-24T13:17:08;9.80;99.90
67163;DHT22;54092;53.088;8.850;2023-04-24T13:19:39;9.80;99.90
67163;DHT22;54092;53.088;8.850;2023-04-24T13:22:06;9.50;99.90
67163;DHT22;54092;53.088;8.850;2023-04-24T13:24:32;9.30;99.90
67163;DHT22;54092;53.088;8.850;2023-04-24T13:26:58;9.30;99.90
67163;DHT22;54092;53.088;8.850;2023-04-24T13:29:24;9.20;99.90
67163;DHT22;54092;53.088;8.850;2023-04-24T13:31:53;9.10;99.90
67163;DHT22;54092;53.088;8.850;2023-04-24T13:34:23;9.00;99.90
67163;DHT22;54092;53.088;8.850;2023-04-24T13:36:50;9.00;99.90
67163;DHT22;54092;53.088;8.850;2023-04-24T13:39:16;9.00;99.90
67163;DHT22;54092;53.088;8.850;2023-04-24T13:41:42;8.90;99.90
67163;DHT22;54092;53.088;8.850;2023-04-24T13:44:08;9.00;99.90
67163;DHT22;54092;53.088;8.850;2023-04-24T13:46:34;8.90;99.90
67163;DHT22;54092;53.088;8.850;2023-04-24T13:48:59;8.80;99.90
67163;DHT22;54092;53.088;8.850;2023-04-24T13:51:25;8.70;99.90
67163;DHT22;54092;53.088;8.850;2023-04-24T13:53:54;8.70;99.90
67163;DHT22;54092;53.088;8.850;2023-04-24T13:56:20;8.70;99.90
67163;DHT22;54092;53.088;8.850;2023-04-24T13:58:46;8.70;99.90
67163;DHT22;54092;53.088;8.850;2023-04-24T14:01:12;8.70;99.90
67163;DHT22;54092;53.088;8.850;2023-04-24T14:03:37;8.70;99.90
67163;DHT22;54092;53.088;8.850;2023-04-24T14:06:03;8.70;99.90
67163;DHT22;54092;53.088;8.850;2023-04-24T14:08:28;8.70;99.90
67163;DHT22;54092;53.088;8.850;2023-04-24T14:10:54;8.60;99.90
67163;DHT22;54092;53.088;8.850;2023-04-24T14:13:20;8.60;99.90
67163;DHT22;54092;53.088;8.850;2023-04-24T14:15:46;8.60;99.90
67163;DHT22;54092;53.088;8.850;2023-04-24T14:18:11;8.60;99.90
67163;DHT22;54092;53.088;8.850;2023-04-24T14:20:37;8.50;99.90
67163;DHT22;54092;53.088;8.850;2023-04-24T14:23:03;8.40;99.90
67163;DHT22;54092;53.088;8.850;2023-04-24T14:25:29;8.30;99.90
67163;DHT22;54092;53.088;8.850;2023-04-24T14:27:55;8.30;99.90
67163;DHT22;54092;53.088;8.850;2023-04-24T14:30:20;8.20;99.90
67163;DHT22;54092;53.088;8.850;2023-04-24T14:32:46;8.20;99.90
67163;DHT22;54092;53.088;8.850;2023-04-24T14:35:12;8.20;99.90
67163;DHT22;54092;53.088;8.850;2023-04-24T14:37:37;8.20;99.90
67163;DHT22;54092;53.088;8.850;2023-04-24T14:40:06;8.20;99.90
67163;DHT22;54092;53.088;8.850;2023-04-24T14:42:33;8.20;99.90
67163;DHT22;54092;53.088;8.850;2023-04-24T14:44:59;8.20;99.90
67163;DHT22;54092;53.088;8.850;2023-04-24T14:47:24;8.20;99.90
67163;DHT22;54092;53.088;8.850;2023-04-24T14:49:50;8.30;99.90
67163;DHT22;54092;53.088;8.850;2023-04-24T14:52:16;8.20;99.90
67163;DHT22;54092;53.088;8.850;2023-04-24T14:54:42;8.20;99.90
67163;DHT22;54092;53.088;8.850;2023-04-24T14:57:08;8.20;99.90
67163;DHT22;54092;53.088;8.850;2023-04-24T14:59:33;8.20;99.90
67163;DHT22;54092;53.088;8.850;2023-04-24T15:01:59;8.10;99.90
67163;DHT22;54092;53.088;8.850;2023-04-24T15:04:25;8.10;99.90
67163;DHT22;54092;53.088;8.850;2023-04-24T15:06:51;8.20;99.90
67163;DHT22;54092;53.088;8.850;2023-04-24T15:09:17;8.20;99.90
67163;DHT22;54092;53.088;8.850;2023-04-24T15:11:42;8.10;99.90
67163;DHT22;54092;53.088;8.850;2023-04-24T15:14:08;8.20;99.90
67163;DHT22;54092;53.088;8.850;2023-04-24T15:16:33;8.20;99.90
67163;DHT22;54092;53.088;8.850;2023-04-24T15:18:59;8.30;99.90
67163;DHT22;54092;53.088;8.850;2023-04-24T15:21:24;8.30;99.90
67163;DHT22;54092;53.088;8.850;2023-04-24T15:23:51;8.30;99.90
67163;DHT22;54092;53.088;8.850;2023-04-24T15:26:17;8.40;99.90
67163;DHT22;54092;53.088;8.850;2023-04-24T15:28:42;8.50;99.90
67163;DHT22;54092;53.088;8.850;2023-04-24T15:31:08;8.40;99.90
67163;DHT22;54092;53.088;8.850;2023-04-24T15:33:33;8.40;99.90
67163;DHT22;54092;53.088;8.850;2023-04-24T15:35:59;8.40;99.90